Haicheng, China
Current Conditions -  °F | °C
As of 9:30 AM on Thursday 23 Oct 2014 (Local Time) from ZYTX Reporting Station
Overcast Overcast  
Wind Chill: 57°   Ceiling: 3300
Heat Index: 57°   Visibility: 5mi
Dew Point: 39°   Wind: 11mph
Humidity: 51%   Direction: 160°SSE
Pressure: 30"   Gusts: NA
Location:  40.86°N, 122.74°E
Report Text: ZYTX 230130Z 16005MPS 120V190 8000 OVC033 14/04 Q1016 NOSIG
Loading
Personal Weather Stations






























Interactive Weather Map
Tropical Storm Tracking
New forecast layout! Learn more

10-Day Weather Forecast

Advertisements
Track Severe Weather on mobile